sensor_id;sensor_type;location;lat;lon;timestamp;P1;durP1;ratioP1;P2;durP2;ratioP2
64832;SDS011;51290;45.060;38.948;2022-11-20T00:01:15;18.67;;;9.65;;
64832;SDS011;51290;45.060;38.948;2022-11-20T00:03:46;12.97;;;7.70;;
64832;SDS011;51290;45.060;38.948;2022-11-20T00:06:14;18.63;;;8.73;;
64832;SDS011;51290;45.060;38.948;2022-11-20T00:08:41;15.27;;;8.32;;
64832;SDS011;51290;45.060;38.948;2022-11-20T00:11:09;16.50;;;7.53;;
64832;SDS011;51290;45.060;38.948;2022-11-20T00:13:52;13.95;;;6.70;;
64832;SDS011;51290;45.060;38.948;2022-11-20T00:16:22;13.02;;;7.32;;
64832;SDS011;51290;45.060;38.948;2022-11-20T00:18:50;13.15;;;7.22;;
64832;SDS011;51290;45.060;38.948;2022-11-20T00:21:25;14.50;;;7.13;;
64832;SDS011;51290;45.060;38.948;2022-11-20T00:23:53;14.18;;;7.53;;
64832;SDS011;51290;45.060;38.948;2022-11-20T00:26:21;12.25;;;7.65;;
64832;SDS011;51290;45.060;38.948;2022-11-20T00:28:49;16.88;;;8.45;;
64832;SDS011;51290;45.060;38.948;2022-11-20T00:31:17;11.63;;;6.75;;
64832;SDS011;51290;45.060;38.948;2022-11-20T00:33:44;13.48;;;8.15;;
64832;SDS011;51290;45.060;38.948;2022-11-20T00:36:11;11.50;;;6.22;;
64832;SDS011;51290;45.060;38.948;2022-11-20T00:38:39;13.23;;;7.25;;
64832;SDS011;51290;45.060;38.948;2022-11-20T00:41:09;14.60;;;7.38;;
64832;SDS011;51290;45.060;38.948;2022-11-20T00:43:37;13.15;;;7.50;;
64832;SDS011;51290;45.060;38.948;2022-11-20T00:46:04;12.48;;;6.88;;
64832;SDS011;51290;45.060;38.948;2022-11-20T00:48:32;14.13;;;7.13;;
64832;SDS011;51290;45.060;38.948;2022-11-20T00:50:59;15.80;;;7.05;;
64832;SDS011;51290;45.060;38.948;2022-11-20T00:53:25;11.82;;;7.18;;
64832;SDS011;51290;45.060;38.948;2022-11-20T00:55:52;18.38;;;9.27;;
64832;SDS011;51290;45.060;38.948;2022-11-20T00:58:22;17.50;;;8.57;;
64832;SDS011;51290;45.060;38.948;2022-11-20T01:00:49;16.90;;;7.80;;
64832;SDS011;51290;45.060;38.948;2022-11-20T01:03:15;14.23;;;6.85;;
64832;SDS011;51290;45.060;38.948;2022-11-20T01:05:42;13.43;;;7.20;;
64832;SDS011;51290;45.060;38.948;2022-11-20T01:08:08;15.27;;;7.50;;
64832;SDS011;51290;45.060;38.948;2022-11-20T01:10:34;16.77;;;8.38;;
64832;SDS011;51290;45.060;38.948;2022-11-20T01:13:00;17.90;;;8.05;;
64832;SDS011;51290;45.060;38.948;2022-11-20T01:15:44;11.57;;;5.82;;
64832;SDS011;51290;45.060;38.948;2022-11-20T01:18:10;17.42;;;8.35;;
64832;SDS011;51290;45.060;38.948;2022-11-20T01:20:36;16.10;;;8.20;;
64832;SDS011;51290;45.060;38.948;2022-11-20T01:23:03;15.73;;;8.60;;
64832;SDS011;51290;45.060;38.948;2022-11-20T01:25:29;18.75;;;8.73;;
64832;SDS011;51290;45.060;38.948;2022-11-20T01:27:55;12.98;;;6.70;;
64832;SDS011;51290;45.060;38.948;2022-11-20T01:30:23;14.57;;;6.88;;
64832;SDS011;51290;45.060;38.948;2022-11-20T01:32:49;14.93;;;8.18;;
64832;SDS011;51290;45.060;38.948;2022-11-20T01:35:16;14.23;;;7.45;;
64832;SDS011;51290;45.060;38.948;2022-11-20T01:37:42;14.38;;;7.45;;
64832;SDS011;51290;45.060;38.948;2022-11-20T01:40:08;19.65;;;7.53;;
64832;SDS011;51290;45.060;38.948;2022-11-20T01:42:35;13.85;;;6.72;;
64832;SDS011;51290;45.060;38.948;2022-11-20T01:48:15;15.02;;;7.07;;
64832;SDS011;51290;45.060;38.948;2022-11-20T01:50:43;15.73;;;6.97;;
64832;SDS011;51290;45.060;38.948;2022-11-20T01:53:11;12.82;;;6.40;;
64832;SDS011;51290;45.060;38.948;2022-11-20T01:55:44;13.75;;;6.65;;
64832;SDS011;51290;45.060;38.948;2022-11-20T01:58:15;13.53;;;7.27;;
64832;SDS011;51290;45.060;38.948;2022-11-20T02:00:44;14.35;;;7.05;;
64832;SDS011;51290;45.060;38.948;2022-11-20T02:03:11;12.80;;;7.43;;
64832;SDS011;51290;45.060;38.948;2022-11-20T02:05:44;12.73;;;6.30;;
64832;SDS011;51290;45.060;38.948;2022-11-20T02:08:23;15.82;;;7.85;;
64832;SDS011;51290;45.060;38.948;2022-11-20T02:10:49;13.70;;;7.45;;
64832;SDS011;51290;45.060;38.948;2022-11-20T02:13:15;15.55;;;7.05;;
64832;SDS011;51290;45.060;38.948;2022-11-20T02:16:02;16.17;;;8.45;;
64832;SDS011;51290;45.060;38.948;2022-11-20T02:18:29;12.32;;;7.35;;
64832;SDS011;51290;45.060;38.948;2022-11-20T02:20:58;16.50;;;7.50;;
64832;SDS011;51290;45.060;38.948;2022-11-20T02:26:19;12.10;;;7.20;;
64832;SDS011;51290;45.060;38.948;2022-11-20T02:28:47;11.95;;;6.65;;
64832;SDS011;51290;45.060;38.948;2022-11-20T02:31:13;13.95;;;6.07;;
64832;SDS011;51290;45.060;38.948;2022-11-20T02:33:39;12.52;;;6.10;;
64832;SDS011;51290;45.060;38.948;2022-11-20T02:36:05;11.80;;;5.80;;
64832;SDS011;51290;45.060;38.948;2022-11-20T02:38:33;16.02;;;6.45;;
64832;SDS011;51290;45.060;38.948;2022-11-20T02:41:01;11.05;;;6.40;;
64832;SDS011;51290;45.060;38.948;2022-11-20T02:43:27;11.05;;;6.20;;
64832;SDS011;51290;45.060;38.948;2022-11-20T02:45:53;11.35;;;6.80;;
64832;SDS011;51290;45.060;38.948;2022-11-20T02:48:19;14.88;;;7.10;;
64832;SDS011;51290;45.060;38.948;2022-11-20T02:50:45;10.05;;;5.75;;
64832;SDS011;51290;45.060;38.948;2022-11-20T02:53:14;15.05;;;7.18;;
64832;SDS011;51290;45.060;38.948;2022-11-20T02:55:40;18.02;;;8.35;;
64832;SDS011;51290;45.060;38.948;2022-11-20T02:58:06;14.95;;;7.43;;
64832;SDS011;51290;45.060;38.948;2022-11-20T03:00:31;12.65;;;6.78;;
64832;SDS011;51290;45.060;38.948;2022-11-20T03:02:58;13.80;;;7.25;;
64832;SDS011;51290;45.060;38.948;2022-11-20T03:05:23;10.98;;;6.65;;
64832;SDS011;51290;45.060;38.948;2022-11-20T03:07:58;11.15;;;6.10;;
64832;SDS011;51290;45.060;38.948;2022-11-20T03:10:24;10.02;;;5.63;;
64832;SDS011;51290;45.060;38.948;2022-11-20T03:12:54;13.35;;;6.82;;
64832;SDS011;51290;45.060;38.948;2022-11-20T03:15:21;21.17;;;7.13;;
64832;SDS011;51290;45.060;38.948;2022-11-20T03:17:48;11.02;;;6.55;;
64832;SDS011;51290;45.060;38.948;2022-11-20T03:20:14;13.82;;;6.78;;
64832;SDS011;51290;45.060;38.948;2022-11-20T03:22:40;13.80;;;6.65;;
64832;SDS011;51290;45.060;38.948;2022-11-20T03:25:06;11.65;;;6.25;;
64832;SDS011;51290;45.060;38.948;2022-11-20T03:27:33;16.30;;;7.65;;
64832;SDS011;51290;45.060;38.948;2022-11-20T03:30:00;13.48;;;6.40;;
64832;SDS011;51290;45.060;38.948;2022-11-20T03:32:26;12.35;;;5.78;;
64832;SDS011;51290;45.060;38.948;2022-11-20T03:34:52;10.52;;;5.75;;
64832;SDS011;51290;45.060;38.948;2022-11-20T03:37:18;13.50;;;7.43;;
64832;SDS011;51290;45.060;38.948;2022-11-20T03:39:44;13.35;;;6.47;;
64832;SDS011;51290;45.060;38.948;2022-11-20T03:42:10;11.25;;;6.10;;
64832;SDS011;51290;45.060;38.948;2022-11-20T03:44:56;15.18;;;6.72;;
64832;SDS011;51290;45.060;38.948;2022-11-20T03:47:22;13.60;;;6.57;;
64832;SDS011;51290;45.060;38.948;2022-11-20T03:49:48;12.40;;;6.40;;
64832;SDS011;51290;45.060;38.948;2022-11-20T03:52:14;11.20;;;5.28;;
64832;SDS011;51290;45.060;38.948;2022-11-20T03:54:40;11.52;;;5.97;;
64832;SDS011;51290;45.060;38.948;2022-11-20T03:57:06;14.50;;;6.32;;
64832;SDS011;51290;45.060;38.948;2022-11-20T03:59:32;13.68;;;7.07;;
64832;SDS011;51290;45.060;38.948;2022-11-20T04:01:58;22.98;;;5.75;;
64832;SDS011;51290;45.060;38.948;2022-11-20T04:04:24;11.02;;;6.45;;
64832;SDS011;51290;45.060;38.948;2022-11-20T04:06:50;11.52;;;6.18;;
64832;SDS011;51290;45.060;38.948;2022-11-20T04:09:16;11.88;;;6.10;;
64832;SDS011;51290;45.060;38.948;2022-11-20T04:11:42;12.35;;;5.82;;
64832;SDS011;51290;45.060;38.948;2022-11-20T04:14:15;17.23;;;6.28;;
64832;SDS011;51290;45.060;38.948;2022-11-20T04:16:41;10.20;;;6.60;;
64832;SDS011;51290;45.060;38.948;2022-11-20T04:19:12;13.23;;;7.63;;
64832;SDS011;51290;45.060;38.948;2022-11-20T04:21:40;13.93;;;6.68;;
64832;SDS011;51290;45.060;38.948;2022-11-20T04:24:06;11.55;;;6.80;;
64832;SDS011;51290;45.060;38.948;2022-11-20T04:26:33;12.82;;;7.15;;
64832;SDS011;51290;45.060;38.948;2022-11-20T04:28:59;13.13;;;7.47;;
64832;SDS011;51290;45.060;38.948;2022-11-20T04:31:29;12.02;;;6.93;;
64832;SDS011;51290;45.060;38.948;2022-11-20T04:34:00;15.18;;;7.65;;
64832;SDS011;51290;45.060;38.948;2022-11-20T04:36:28;20.73;;;7.53;;
64832;SDS011;51290;45.060;38.948;2022-11-20T04:38:59;13.60;;;6.38;;
64832;SDS011;51290;45.060;38.948;2022-11-20T04:41:30;13.50;;;7.10;;
64832;SDS011;51290;45.060;38.948;2022-11-20T04:43:59;13.13;;;6.60;;
64832;SDS011;51290;45.060;38.948;2022-11-20T04:46:28;14.13;;;6.97;;
64832;SDS011;51290;45.060;38.948;2022-11-20T04:48:56;16.92;;;7.72;;
64832;SDS011;51290;45.060;38.948;2022-11-20T04:51:22;13.25;;;7.30;;
64832;SDS011;51290;45.060;38.948;2022-11-20T04:53:48;13.55;;;6.45;;
64832;SDS011;51290;45.060;38.948;2022-11-20T04:56:14;16.98;;;8.20;;
64832;SDS011;51290;45.060;38.948;2022-11-20T04:58:40;10.88;;;6.13;;
64832;SDS011;51290;45.060;38.948;2022-11-20T05:01:07;14.85;;;7.18;;
64832;SDS011;51290;45.060;38.948;2022-11-20T05:03:39;12.13;;;6.55;;
64832;SDS011;51290;45.060;38.948;2022-11-20T05:06:06;13.93;;;6.32;;
64832;SDS011;51290;45.060;38.948;2022-11-20T05:08:33;17.75;;;7.88;;
64832;SDS011;51290;45.060;38.948;2022-11-20T05:11:03;12.38;;;6.90;;
64832;SDS011;51290;45.060;38.948;2022-11-20T05:13:32;17.05;;;8.70;;
64832;SDS011;51290;45.060;38.948;2022-11-20T05:16:01;14.00;;;6.70;;
64832;SDS011;51290;45.060;38.948;2022-11-20T05:18:31;14.40;;;7.97;;
64832;SDS011;51290;45.060;38.948;2022-11-20T05:20:58;13.65;;;7.82;;
64832;SDS011;51290;45.060;38.948;2022-11-20T05:23:24;17.65;;;8.57;;
64832;SDS011;51290;45.060;38.948;2022-11-20T05:25:54;18.52;;;8.27;;
64832;SDS011;51290;45.060;38.948;2022-11-20T05:28:20;14.60;;;8.40;;
64832;SDS011;51290;45.060;38.948;2022-11-20T05:30:47;15.40;;;8.05;;
64832;SDS011;51290;45.060;38.948;2022-11-20T05:33:14;12.32;;;7.38;;
64832;SDS011;51290;45.060;38.948;2022-11-20T05:35:40;17.13;;;8.40;;
64832;SDS011;51290;45.060;38.948;2022-11-20T05:38:06;14.70;;;8.85;;
64832;SDS011;51290;45.060;38.948;2022-11-20T05:40:32;16.08;;;7.65;;
64832;SDS011;51290;45.060;38.948;2022-11-20T05:42:58;15.80;;;9.20;;
64832;SDS011;51290;45.060;38.948;2022-11-20T05:45:24;17.88;;;8.38;;
64832;SDS011;51290;45.060;38.948;2022-11-20T05:47:50;16.58;;;9.63;;
64832;SDS011;51290;45.060;38.948;2022-11-20T05:50:16;16.55;;;8.88;;
64832;SDS011;51290;45.060;38.948;2022-11-20T05:52:42;13.70;;;7.18;;
64832;SDS011;51290;45.060;38.948;2022-11-20T05:55:08;20.50;;;8.18;;
64832;SDS011;51290;45.060;38.948;2022-11-20T05:57:34;16.10;;;8.55;;
64832;SDS011;51290;45.060;38.948;2022-11-20T06:00:01;14.82;;;7.97;;
64832;SDS011;51290;45.060;38.948;2022-11-20T06:02:29;20.30;;;9.90;;
64832;SDS011;51290;45.060;38.948;2022-11-20T06:04:55;17.67;;;8.02;;
64832;SDS011;51290;45.060;38.948;2022-11-20T06:07:21;16.52;;;7.97;;
64832;SDS011;51290;45.060;38.948;2022-11-20T06:09:47;13.65;;;6.65;;
64832;SDS011;51290;45.060;38.948;2022-11-20T06:12:13;15.48;;;8.05;;
64832;SDS011;51290;45.060;38.948;2022-11-20T06:14:39;18.88;;;8.65;;
64832;SDS011;51290;45.060;38.948;2022-11-20T06:17:05;14.10;;;7.80;;
64832;SDS011;51290;45.060;38.948;2022-11-20T06:19:31;16.10;;;7.72;;
64832;SDS011;51290;45.060;38.948;2022-11-20T06:21:57;17.58;;;9.95;;
64832;SDS011;51290;45.060;38.948;2022-11-20T06:24:23;14.10;;;8.00;;
64832;SDS011;51290;45.060;38.948;2022-11-20T06:26:50;14.30;;;6.85;;
64832;SDS011;51290;45.060;38.948;2022-11-20T06:29:16;15.45;;;8.02;;
64832;SDS011;51290;45.060;38.948;2022-11-20T06:31:42;18.30;;;9.25;;
64832;SDS011;51290;45.060;38.948;2022-11-20T06:34:08;18.88;;;9.18;;
64832;SDS011;51290;45.060;38.948;2022-11-20T06:36:35;16.13;;;8.70;;
64832;SDS011;51290;45.060;38.948;2022-11-20T06:39:01;18.45;;;8.65;;
64832;SDS011;51290;45.060;38.948;2022-11-20T06:41:27;14.68;;;8.43;;
64832;SDS011;51290;45.060;38.948;2022-11-20T06:43:53;19.92;;;8.60;;
64832;SDS011;51290;45.060;38.948;2022-11-20T06:46:19;20.38;;;10.32;;
64832;SDS011;51290;45.060;38.948;2022-11-20T06:48:46;15.82;;;8.25;;
64832;SDS011;51290;45.060;38.948;2022-11-20T06:51:13;21.38;;;8.63;;
64832;SDS011;51290;45.060;38.948;2022-11-20T06:53:39;22.33;;;9.77;;
64832;SDS011;51290;45.060;38.948;2022-11-20T06:56:05;16.27;;;9.00;;
64832;SDS011;51290;45.060;38.948;2022-11-20T06:58:33;16.33;;;8.75;;
64832;SDS011;51290;45.060;38.948;2022-11-20T07:01:00;17.05;;;8.57;;
64832;SDS011;51290;45.060;38.948;2022-11-20T07:03:27;17.15;;;7.95;;
64832;SDS011;51290;45.060;38.948;2022-11-20T07:05:57;15.50;;;8.23;;
64832;SDS011;51290;45.060;38.948;2022-11-20T07:08:24;15.00;;;7.32;;
64832;SDS011;51290;45.060;38.948;2022-11-20T07:10:50;15.50;;;8.55;;
64832;SDS011;51290;45.060;38.948;2022-11-20T07:13:16;15.23;;;7.50;;
64832;SDS011;51290;45.060;38.948;2022-11-20T07:15:42;17.42;;;8.80;;
64832;SDS011;51290;45.060;38.948;2022-11-20T07:18:08;14.27;;;8.30;;
64832;SDS011;51290;45.060;38.948;2022-11-20T07:20:34;14.82;;;8.13;;
64832;SDS011;51290;45.060;38.948;2022-11-20T07:23:00;14.57;;;8.35;;
64832;SDS011;51290;45.060;38.948;2022-11-20T07:25:27;14.00;;;7.70;;
64832;SDS011;51290;45.060;38.948;2022-11-20T07:27:57;17.40;;;9.77;;
64832;SDS011;51290;45.060;38.948;2022-11-20T07:30:24;17.15;;;8.23;;
64832;SDS011;51290;45.060;38.948;2022-11-20T07:32:51;20.10;;;8.82;;
64832;SDS011;51290;45.060;38.948;2022-11-20T07:35:18;16.63;;;8.52;;
64832;SDS011;51290;45.060;38.948;2022-11-20T07:37:45;11.77;;;7.38;;
64832;SDS011;51290;45.060;38.948;2022-11-20T07:40:12;12.75;;;6.97;;
64832;SDS011;51290;45.060;38.948;2022-11-20T07:42:38;18.13;;;7.85;;
64832;SDS011;51290;45.060;38.948;2022-11-20T07:45:05;17.92;;;8.50;;
64832;SDS011;51290;45.060;38.948;2022-11-20T07:47:35;15.90;;;9.02;;
64832;SDS011;51290;45.060;38.948;2022-11-20T07:50:01;13.95;;;7.15;;
64832;SDS011;51290;45.060;38.948;2022-11-20T07:52:28;16.45;;;7.53;;
64832;SDS011;51290;45.060;38.948;2022-11-20T07:54:54;14.73;;;7.47;;
64832;SDS011;51290;45.060;38.948;2022-11-20T07:57:20;13.52;;;7.60;;
64832;SDS011;51290;45.060;38.948;2022-11-20T07:59:46;12.13;;;6.82;;
64832;SDS011;51290;45.060;38.948;2022-11-20T08:02:12;12.18;;;7.00;;
64832;SDS011;51290;45.060;38.948;2022-11-20T08:04:38;13.13;;;7.43;;
64832;SDS011;51290;45.060;38.948;2022-11-20T08:07:04;18.83;;;8.70;;
64832;SDS011;51290;45.060;38.948;2022-11-20T08:09:30;13.57;;;6.97;;
64832;SDS011;51290;45.060;38.948;2022-11-20T08:11:57;13.05;;;7.28;;
64832;SDS011;51290;45.060;38.948;2022-11-20T08:14:49;12.32;;;7.13;;
64832;SDS011;51290;45.060;38.948;2022-11-20T08:17:15;16.08;;;7.82;;
64832;SDS011;51290;45.060;38.948;2022-11-20T08:19:41;16.38;;;7.95;;
64832;SDS011;51290;45.060;38.948;2022-11-20T08:22:07;14.95;;;8.32;;
64832;SDS011;51290;45.060;38.948;2022-11-20T08:24:36;16.38;;;8.00;;
64832;SDS011;51290;45.060;38.948;2022-11-20T08:27:02;15.90;;;8.48;;
64832;SDS011;51290;45.060;38.948;2022-11-20T08:29:28;13.25;;;7.78;;
64832;SDS011;51290;45.060;38.948;2022-11-20T08:31:54;15.07;;;7.22;;
64832;SDS011;51290;45.060;38.948;2022-11-20T08:34:20;19.85;;;7.07;;
64832;SDS011;51290;45.060;38.948;2022-11-20T08:36:46;10.57;;;5.40;;
64832;SDS011;51290;45.060;38.948;2022-11-20T08:39:13;15.20;;;7.05;;
64832;SDS011;51290;45.060;38.948;2022-11-20T08:41:39;13.35;;;7.07;;
64832;SDS011;51290;45.060;38.948;2022-11-20T08:44:06;14.80;;;7.82;;
64832;SDS011;51290;45.060;38.948;2022-11-20T08:46:34;15.77;;;7.25;;
64832;SDS011;51290;45.060;38.948;2022-11-20T08:49:07;13.00;;;7.43;;
64832;SDS011;51290;45.060;38.948;2022-11-20T08:51:35;10.82;;;6.75;;
64832;SDS011;51290;45.060;38.948;2022-11-20T08:54:02;14.55;;;7.05;;
64832;SDS011;51290;45.060;38.948;2022-11-20T08:56:29;20.05;;;8.20;;
64832;SDS011;51290;45.060;38.948;2022-11-20T08:58:56;12.10;;;6.85;;
64832;SDS011;51290;45.060;38.948;2022-11-20T09:01:22;12.85;;;7.03;;
64832;SDS011;51290;45.060;38.948;2022-11-20T09:03:49;16.27;;;8.20;;
64832;SDS011;51290;45.060;38.948;2022-11-20T09:06:15;17.77;;;7.60;;
64832;SDS011;51290;45.060;38.948;2022-11-20T09:08:42;11.52;;;7.25;;
64832;SDS011;51290;45.060;38.948;2022-11-20T09:11:09;14.70;;;7.32;;
64832;SDS011;51290;45.060;38.948;2022-11-20T09:13:35;15.52;;;8.18;;
64832;SDS011;51290;45.060;38.948;2022-11-20T09:16:06;21.00;;;8.98;;
64832;SDS011;51290;45.060;38.948;2022-11-20T09:18:34;14.10;;;7.32;;
64832;SDS011;51290;45.060;38.948;2022-11-20T09:21:05;13.77;;;7.32;;
64832;SDS011;51290;45.060;38.948;2022-11-20T09:23:33;13.70;;;7.82;;
64832;SDS011;51290;45.060;38.948;2022-11-20T09:26:04;17.80;;;8.23;;
64832;SDS011;51290;45.060;38.948;2022-11-20T09:28:32;12.48;;;7.57;;
64832;SDS011;51290;45.060;38.948;2022-11-20T09:30:58;14.23;;;8.05;;
64832;SDS011;51290;45.060;38.948;2022-11-20T09:33:24;15.07;;;7.78;;
64832;SDS011;51290;45.060;38.948;2022-11-20T09:35:50;18.23;;;8.93;;
64832;SDS011;51290;45.060;38.948;2022-11-20T09:38:16;16.00;;;7.32;;
64832;SDS011;51290;45.060;38.948;2022-11-20T09:41:27;14.20;;;7.35;;
64832;SDS011;51290;45.060;38.948;2022-11-20T09:54:53;16.85;;;8.68;;
64832;SDS011;51290;45.060;38.948;2022-11-20T09:57:21;15.40;;;7.80;;
64832;SDS011;51290;45.060;38.948;2022-11-20T09:59:58;16.35;;;7.68;;
64832;SDS011;51290;45.060;38.948;2022-11-20T10:02:40;16.92;;;7.45;;
64832;SDS011;51290;45.060;38.948;2022-11-20T10:10:58;14.52;;;7.80;;
64832;SDS011;51290;45.060;38.948;2022-11-20T10:24:42;14.82;;;7.07;;
64832;SDS011;51290;45.060;38.948;2022-11-20T10:30:09;10.88;;;5.82;;
64832;SDS011;51290;45.060;38.948;2022-11-20T10:32:39;12.45;;;6.07;;
64832;SDS011;51290;45.060;38.948;2022-11-20T10:38:21;11.60;;;6.10;;
64832;SDS011;51290;45.060;38.948;2022-11-20T10:41:00;13.27;;;6.40;;
64832;SDS011;51290;45.060;38.948;2022-11-20T10:43:46;8.05;;;4.93;;
64832;SDS011;51290;45.060;38.948;2022-11-20T10:46:15;15.15;;;6.15;;
64832;SDS011;51290;45.060;38.948;2022-11-20T10:49:04;13.80;;;6.82;;
64832;SDS011;51290;45.060;38.948;2022-11-20T10:51:33;11.07;;;5.82;;
64832;SDS011;51290;45.060;38.948;2022-11-20T10:54:19;14.05;;;6.68;;
64832;SDS011;51290;45.060;38.948;2022-11-20T10:57:05;12.00;;;7.05;;
64832;SDS011;51290;45.060;38.948;2022-11-20T10:59:59;13.32;;;6.22;;
64832;SDS011;51290;45.060;38.948;2022-11-20T11:02:39;11.68;;;5.97;;
64832;SDS011;51290;45.060;38.948;2022-11-20T11:05:16;14.27;;;6.88;;
64832;SDS011;51290;45.060;38.948;2022-11-20T11:07:46;13.35;;;6.82;;
64832;SDS011;51290;45.060;38.948;2022-11-20T11:10:21;13.27;;;6.20;;
64832;SDS011;51290;45.060;38.948;2022-11-20T11:12:48;12.70;;;6.57;;
64832;SDS011;51290;45.060;38.948;2022-11-20T11:15:28;10.73;;;5.93;;
64832;SDS011;51290;45.060;38.948;2022-11-20T11:18:05;11.90;;;6.70;;
64832;SDS011;51290;45.060;38.948;2022-11-20T11:20:34;11.38;;;5.95;;
64832;SDS011;51290;45.060;38.948;2022-11-20T11:23:01;12.27;;;6.05;;
64832;SDS011;51290;45.060;38.948;2022-11-20T11:25:32;12.30;;;6.70;;
64832;SDS011;51290;45.060;38.948;2022-11-20T11:30:43;11.05;;;6.38;;
64832;SDS011;51290;45.060;38.948;2022-11-20T11:33:11;12.82;;;7.07;;
64832;SDS011;51290;45.060;38.948;2022-11-20T11:35:50;15.55;;;6.63;;
64832;SDS011;51290;45.060;38.948;2022-11-20T11:38:29;11.07;;;5.93;;
64832;SDS011;51290;45.060;38.948;2022-11-20T11:41:05;11.15;;;6.63;;
64832;SDS011;51290;45.060;38.948;2022-11-20T11:43:35;10.10;;;6.30;;
64832;SDS011;51290;45.060;38.948;2022-11-20T11:48:56;11.68;;;6.10;;
64832;SDS011;51290;45.060;38.948;2022-11-20T11:51:35;11.85;;;6.28;;
64832;SDS011;51290;45.060;38.948;2022-11-20T11:57:35;12.20;;;6.55;;
64832;SDS011;51290;45.060;38.948;2022-11-20T12:00:17;10.30;;;6.10;;
64832;SDS011;51290;45.060;38.948;2022-11-20T12:05:18;10.02;;;5.95;;
64832;SDS011;51290;45.060;38.948;2022-11-20T12:15:58;12.68;;;5.75;;
64832;SDS011;51290;45.060;38.948;2022-11-20T12:18:32;13.45;;;6.40;;
64832;SDS011;51290;45.060;38.948;2022-11-20T12:21:04;17.45;;;7.55;;
64832;SDS011;51290;45.060;38.948;2022-11-20T12:23:44;12.00;;;6.25;;
64832;SDS011;51290;45.060;38.948;2022-11-20T12:40:57;16.73;;;6.40;;
64832;SDS011;51290;45.060;38.948;2022-11-20T12:43:48;17.13;;;6.78;;
64832;SDS011;51290;45.060;38.948;2022-11-20T12:46:51;15.82;;;6.57;;
64832;SDS011;51290;45.060;38.948;2022-11-20T12:49:41;15.68;;;6.80;;
64832;SDS011;51290;45.060;38.948;2022-11-20T12:58:29;14.40;;;6.57;;
64832;SDS011;51290;45.060;38.948;2022-11-20T13:04:00;15.18;;;7.88;;
64832;SDS011;51290;45.060;38.948;2022-11-20T13:06:34;15.95;;;7.25;;
64832;SDS011;51290;45.060;38.948;2022-11-20T13:09:00;12.25;;;7.10;;
64832;SDS011;51290;45.060;38.948;2022-11-20T13:14:04;12.43;;;7.25;;
64832;SDS011;51290;45.060;38.948;2022-11-20T13:16:36;12.30;;;6.20;;
64832;SDS011;51290;45.060;38.948;2022-11-20T13:19:26;16.65;;;7.40;;
64832;SDS011;51290;45.060;38.948;2022-11-20T13:21:53;16.35;;;6.63;;
64832;SDS011;51290;45.060;38.948;2022-11-20T13:29:30;14.52;;;7.05;;
64832;SDS011;51290;45.060;38.948;2022-11-20T13:34:30;12.00;;;6.68;;
64832;SDS011;51290;45.060;38.948;2022-11-20T13:36:57;15.93;;;7.43;;
64832;SDS011;51290;45.060;38.948;2022-11-20T13:41:59;13.93;;;7.30;;
64832;SDS011;51290;45.060;38.948;2022-11-20T13:44:55;13.32;;;7.22;;
64832;SDS011;51290;45.060;38.948;2022-11-20T13:47:27;14.90;;;7.47;;
64832;SDS011;51290;45.060;38.948;2022-11-20T13:49:57;17.15;;;6.75;;
64832;SDS011;51290;45.060;38.948;2022-11-20T13:57:56;8.48;;;4.70;;
64832;SDS011;51290;45.060;38.948;2022-11-20T14:00:31;11.25;;;4.82;;
64832;SDS011;51290;45.060;38.948;2022-11-20T14:05:39;10.07;;;4.70;;
64832;SDS011;51290;45.060;38.948;2022-11-20T14:08:17;9.95;;;4.93;;
64832;SDS011;51290;45.060;38.948;2022-11-20T14:11:02;10.20;;;4.10;;
64832;SDS011;51290;45.060;38.948;2022-11-20T14:13:51;10.52;;;5.00;;
64832;SDS011;51290;45.060;38.948;2022-11-20T14:16:21;10.80;;;5.05;;
64832;SDS011;51290;45.060;38.948;2022-11-20T14:18:49;9.75;;;4.57;;
64832;SDS011;51290;45.060;38.948;2022-11-20T14:21:25;8.52;;;4.50;;
64832;SDS011;51290;45.060;38.948;2022-11-20T14:24:06;12.82;;;5.00;;
64832;SDS011;51290;45.060;38.948;2022-11-20T14:26:36;12.98;;;6.57;;
64832;SDS011;51290;45.060;38.948;2022-11-20T14:29:16;8.95;;;4.63;;
64832;SDS011;51290;45.060;38.948;2022-11-20T14:31:47;9.13;;;4.30;;
64832;SDS011;51290;45.060;38.948;2022-11-20T14:34:23;8.00;;;4.65;;
64832;SDS011;51290;45.060;38.948;2022-11-20T14:36:53;8.68;;;4.40;;
64832;SDS011;51290;45.060;38.948;2022-11-20T14:39:36;6.35;;;3.88;;
64832;SDS011;51290;45.060;38.948;2022-11-20T14:42:16;5.82;;;3.65;;
64832;SDS011;51290;45.060;38.948;2022-11-20T14:44:44;6.97;;;3.97;;
64832;SDS011;51290;45.060;38.948;2022-11-20T14:47:15;8.02;;;4.15;;
64832;SDS011;51290;45.060;38.948;2022-11-20T14:49:48;8.70;;;4.03;;
64832;SDS011;51290;45.060;38.948;2022-11-20T14:52:16;6.35;;;4.03;;
64832;SDS011;51290;45.060;38.948;2022-11-20T14:54:56;7.40;;;4.03;;
64832;SDS011;51290;45.060;38.948;2022-11-20T14:57:27;8.73;;;3.60;;
64832;SDS011;51290;45.060;38.948;2022-11-20T15:00:17;8.13;;;3.80;;
64832;SDS011;51290;45.060;38.948;2022-11-20T15:02:46;8.82;;;4.40;;
64832;SDS011;51290;45.060;38.948;2022-11-20T15:05:13;6.03;;;3.15;;
64832;SDS011;51290;45.060;38.948;2022-11-20T15:07:42;6.03;;;3.53;;
64832;SDS011;51290;45.060;38.948;2022-11-20T15:10:20;5.72;;;2.95;;
64832;SDS011;51290;45.060;38.948;2022-11-20T15:15:20;7.60;;;3.55;;
64832;SDS011;51290;45.060;38.948;2022-11-20T15:17:58;5.57;;;3.60;;
64832;SDS011;51290;45.060;38.948;2022-11-20T15:20:25;8.10;;;3.88;;
64832;SDS011;51290;45.060;38.948;2022-11-20T15:22:53;8.90;;;4.07;;
64832;SDS011;51290;45.060;38.948;2022-11-20T15:25:20;7.68;;;4.13;;
64832;SDS011;51290;45.060;38.948;2022-11-20T15:31:13;5.40;;;3.22;;
64832;SDS011;51290;45.060;38.948;2022-11-20T15:33:40;6.93;;;3.63;;
64832;SDS011;51290;45.060;38.948;2022-11-20T15:36:08;6.68;;;3.80;;
64832;SDS011;51290;45.060;38.948;2022-11-20T15:38:34;6.93;;;3.30;;
64832;SDS011;51290;45.060;38.948;2022-11-20T15:41:00;8.48;;;4.20;;
64832;SDS011;51290;45.060;38.948;2022-11-20T15:43:26;6.47;;;3.40;;
64832;SDS011;51290;45.060;38.948;2022-11-20T15:46:11;6.90;;;3.35;;
64832;SDS011;51290;45.060;38.948;2022-11-20T15:48:41;6.38;;;3.33;;
64832;SDS011;51290;45.060;38.948;2022-11-20T15:54:18;5.75;;;3.25;;
64832;SDS011;51290;45.060;38.948;2022-11-20T15:56:49;8.50;;;3.23;;
64832;SDS011;51290;45.060;38.948;2022-11-20T15:59:18;6.88;;;3.53;;
64832;SDS011;51290;45.060;38.948;2022-11-20T16:01:47;8.13;;;3.35;;
64832;SDS011;51290;45.060;38.948;2022-11-20T16:04:14;7.10;;;3.78;;
64832;SDS011;51290;45.060;38.948;2022-11-20T16:06:42;9.93;;;3.05;;
64832;SDS011;51290;45.060;38.948;2022-11-20T16:09:08;7.75;;;4.00;;
64832;SDS011;51290;45.060;38.948;2022-11-20T16:11:34;6.60;;;3.30;;
64832;SDS011;51290;45.060;38.948;2022-11-20T16:14:04;4.85;;;2.67;;
64832;SDS011;51290;45.060;38.948;2022-11-20T16:16:49;6.47;;;3.35;;
64832;SDS011;51290;45.060;38.948;2022-11-20T16:19:16;5.70;;;2.90;;
64832;SDS011;51290;45.060;38.948;2022-11-20T16:21:43;6.55;;;3.28;;
64832;SDS011;51290;45.060;38.948;2022-11-20T16:24:32;5.13;;;3.10;;
64832;SDS011;51290;45.060;38.948;2022-11-20T16:27:21;7.88;;;3.50;;
64832;SDS011;51290;45.060;38.948;2022-11-20T16:29:47;7.53;;;3.20;;
64832;SDS011;51290;45.060;38.948;2022-11-20T16:32:13;3.60;;;2.72;;